createdAt,value
2023-04-21T00:05:03.088Z,100.00
2023-04-21T00:10:08.739Z,99.08
2023-04-21T00:15:12.966Z,100.00
2023-04-21T00:20:18.487Z,100.00
2023-04-21T00:25:22.927Z,100.00
2023-04-21T00:30:27.338Z,91.08
2023-04-21T00:35:32.908Z,100.00
2023-04-21T00:40:38.288Z,96.48
2023-04-21T00:45:42.428Z,95.64
2023-04-21T00:50:47.903Z,93.03
2023-04-21T00:55:52.257Z,97.39
2023-04-21T01:00:56.833Z,96.83
2023-04-21T01:06:02.516Z,97.25
2023-04-21T01:11:12.245Z,95.21
2023-04-21T01:16:18.789Z,93.97
2023-04-21T01:21:24.897Z,97.28
2023-04-21T01:26:30.333Z,98.72
2023-04-21T01:31:34.541Z,100.00
2023-04-21T01:36:38.739Z,100.00
2023-04-21T01:41:44.224Z,100.00
2023-04-21T01:46:48.641Z,100.00
2023-04-21T01:51:52.712Z,100.00
2023-04-21T01:56:58.564Z,100.00
2023-04-21T02:02:03.222Z,100.00
2023-04-21T02:07:10.360Z,100.00
2023-04-21T02:12:15.960Z,100.00
2023-04-21T02:17:20.067Z,100.00
2023-04-21T02:22:24.421Z,100.00
2023-04-21T02:27:31.374Z,100.00
2023-04-21T02:32:37.019Z,100.00
2023-04-21T02:37:41.816Z,100.00
2023-04-21T02:42:55.746Z,100.00
2023-04-21T02:47:59.909Z,100.00
2023-04-21T02:53:04.082Z,100.00
2023-04-21T02:58:10.453Z,100.00
2023-04-21T03:03:16.683Z,100.00
2023-04-21T03:08:20.907Z,100.00
2023-04-21T03:13:26.357Z,100.00
2023-04-21T03:18:30.488Z,100.00
2023-04-21T03:23:34.638Z,100.00
2023-04-21T03:28:40.085Z,100.00
2023-04-21T03:33:44.126Z,100.00
2023-04-21T03:38:48.588Z,100.00
2023-04-21T03:43:55.005Z,100.00
2023-04-21T03:48:59.883Z,100.00
2023-04-21T03:54:05.779Z,100.00
2023-04-21T03:59:11.226Z,100.00
2023-04-21T04:04:16.612Z,100.00
2023-04-21T04:09:21.399Z,100.00
2023-04-21T04:14:27.108Z,100.00
2023-04-21T04:19:34.068Z,100.00
2023-04-21T04:24:38.343Z,100.00
2023-04-21T04:29:46.553Z,100.00
2023-04-21T04:34:52.988Z,100.00
2023-04-21T04:39:58.161Z,100.00
2023-04-21T04:45:03.763Z,100.00
2023-04-21T04:50:08.729Z,100.00
2023-04-21T04:55:12.977Z,100.00
2023-04-21T05:00:18.862Z,100.00
2023-04-21T05:05:24.883Z,100.00
2023-04-21T05:10:29.617Z,100.00
2023-04-21T05:15:35.095Z,100.00
2023-04-21T05:20:42.507Z,100.00
2023-04-21T05:25:46.584Z,100.00
2023-04-21T05:30:52.024Z,100.00
2023-04-21T05:35:56.017Z,100.00
2023-04-21T05:40:59.979Z,100.00
2023-04-21T05:46:10.577Z,97.22
2023-04-21T05:51:16.609Z,93.86
2023-04-21T05:56:21.343Z,85.65
2023-04-21T06:01:26.836Z,79.98
2023-04-21T06:06:30.878Z,75.81
2023-04-21T06:11:35.056Z,77.12
2023-04-21T06:16:40.560Z,80.26
2023-04-21T06:21:44.854Z,76.54
2023-04-21T06:26:48.963Z,72.44
2023-04-21T06:31:54.354Z,71.55
2023-04-21T06:36:58.732Z,71.06
2023-04-21T06:42:02.840Z,65.94
2023-04-21T06:47:08.413Z,62.94
2023-04-21T06:52:12.562Z,66.37
2023-04-21T06:57:17.397Z,62.09
2023-04-21T07:02:23.081Z,58.02
2023-04-21T07:07:26.986Z,59.77
2023-04-21T07:12:30.979Z,57.37
2023-04-21T07:17:36.542Z,65.05
2023-04-21T07:22:40.660Z,59.94
2023-04-21T07:27:44.779Z,58.32
2023-04-21T07:32:50.281Z,60.39
2023-04-21T07:37:54.474Z,57.62
2023-04-21T07:42:58.870Z,54.01
2023-04-21T07:48:06.273Z,52.07
2023-04-21T07:53:10.685Z,52.45
2023-04-21T07:58:14.799Z,51.16
2023-04-21T08:03:22.852Z,49.97
2023-04-21T08:08:30.203Z,49.05
2023-04-21T08:13:36.282Z,52.09
2023-04-21T08:18:41.766Z,52.13
2023-04-21T08:23:46.027Z,51.62
2023-04-21T08:28:50.153Z,51.50
2023-04-21T08:34:01.998Z,49.89
2023-04-21T08:39:07.299Z,49.30
2023-04-21T08:44:12.206Z,52.26
2023-04-21T08:49:21.095Z,51.23
2023-04-21T08:54:25.978Z,47.87
2023-04-21T08:59:30.842Z,44.20
2023-04-21T09:04:36.690Z,40.62
2023-04-21T09:09:56.176Z,41.92
2023-04-21T09:15:01.153Z,39.67
2023-04-21T09:20:18.713Z,40.64
2023-04-21T09:25:23.828Z,37.62
2023-04-21T09:30:28.548Z,36.04
2023-04-21T09:35:37.520Z,34.68
2023-04-21T09:40:41.959Z,37.79
2023-04-21T09:45:47.072Z,38.73
2023-04-21T09:56:03.826Z,40.89
2023-04-21T10:01:10.456Z,40.26
2023-04-21T10:06:16.310Z,39.76
2023-04-21T10:11:21.383Z,39.33
2023-04-21T10:16:26.724Z,38.84
2023-04-21T10:21:37.972Z,37.28
2023-04-21T10:26:41.869Z,36.42
2023-04-21T10:31:53.782Z,35.29
2023-04-21T10:37:19.799Z,36.02
2023-04-21T10:42:34.859Z,33.85
2023-04-21T10:47:45.465Z,33.41
2023-04-21T10:52:56.824Z,33.28
2023-04-21T10:58:03.989Z,32.37
2023-04-21T11:03:09.465Z,32.05
2023-04-21T11:08:15.150Z,30.14
2023-04-21T11:13:21.876Z,31.74
2023-04-21T11:18:43.385Z,32.69
2023-04-21T11:23:53.641Z,31.48
2023-04-21T11:28:57.729Z,32.08
2023-04-21T11:34:02.470Z,28.71
2023-04-21T11:39:10.128Z,28.10
2023-04-21T11:44:15.529Z,28.66
2023-04-21T11:49:19.860Z,26.25
2023-04-21T11:54:25.606Z,25.87
2023-04-21T11:59:29.738Z,25.25
2023-04-21T12:04:34.613Z,26.28
2023-04-21T12:09:39.908Z,26.46
2023-04-21T12:14:46.405Z,26.03
2023-04-21T12:19:50.744Z,25.97
2023-04-21T12:24:56.320Z,24.70
2023-04-21T12:30:00.541Z,24.80
2023-04-21T12:35:05.362Z,24.87
2023-04-21T12:40:11.791Z,24.72
2023-04-21T12:45:15.899Z,24.05
2023-04-21T12:50:19.893Z,25.61
2023-04-21T12:55:25.557Z,26.04
2023-04-21T13:00:29.674Z,25.31
2023-04-21T13:05:33.634Z,23.99
2023-04-21T13:10:38.927Z,25.50
2023-04-21T13:15:43.065Z,24.95
2023-04-21T13:20:47.094Z,25.29
2023-04-21T13:25:52.958Z,26.37
2023-04-21T13:30:57.469Z,27.26
2023-04-21T13:36:01.461Z,25.62
2023-04-21T13:41:07.086Z,25.23
2023-04-21T13:46:10.994Z,26.48
2023-04-21T13:51:15.037Z,27.15
2023-04-21T13:56:20.598Z,26.55
2023-04-21T14:01:24.612Z,25.70
2023-04-21T14:06:28.753Z,26.19
2023-04-21T14:11:34.191Z,25.30
2023-04-21T14:16:38.924Z,24.87
2023-04-21T14:21:43.187Z,24.42
2023-04-21T14:26:48.806Z,25.00
2023-04-21T14:31:53.976Z,25.34
2023-04-21T14:36:57.876Z,24.94
2023-04-21T14:42:03.236Z,24.77
2023-04-21T14:47:10.458Z,26.34
2023-04-21T14:52:14.996Z,26.52
2023-04-21T14:57:21.850Z,27.38
2023-04-21T15:02:26.612Z,28.06
2023-04-21T15:07:31.119Z,27.42
2023-04-21T15:12:36.864Z,27.62
2023-04-21T15:17:41.094Z,29.01
2023-04-21T15:22:45.214Z,29.59
2023-04-21T15:27:50.518Z,28.97
2023-04-21T15:32:54.258Z,27.97
2023-04-21T15:37:58.309Z,28.20
2023-04-21T15:43:03.730Z,27.68
2023-04-21T15:48:08.348Z,27.60
2023-04-21T15:53:12.316Z,28.50
2023-04-21T15:58:17.970Z,27.97
2023-04-21T16:03:22.615Z,27.83
2023-04-21T16:08:26.745Z,28.01
2023-04-21T16:13:32.204Z,28.79
2023-04-21T16:18:36.752Z,28.63
2023-04-21T16:23:41.097Z,29.21
2023-04-21T16:28:46.740Z,32.09
2023-04-21T16:33:52.738Z,33.45
2023-04-21T16:38:57.189Z,34.59
2023-04-21T16:44:02.969Z,36.02
2023-04-21T16:49:07.231Z,36.16
2023-04-21T16:54:11.582Z,37.89
2023-04-21T16:59:19.406Z,37.81
2023-04-21T17:04:23.665Z,38.67
2023-04-21T17:09:29.439Z,38.99
2023-04-21T17:14:35.262Z,40.21
2023-04-21T17:20:38.058Z,41.24
2023-04-21T17:25:42.717Z,42.98
2023-04-21T17:31:03.383Z,43.39
2023-04-21T17:36:19.851Z,44.24
2023-04-21T17:41:24.208Z,45.22
2023-04-21T17:46:30.616Z,45.60
2023-04-21T17:51:37.313Z,46.05
2023-04-21T17:56:41.807Z,46.38
2023-04-21T18:01:47.523Z,47.05
2023-04-21T18:06:52.389Z,46.78
2023-04-21T18:11:57.094Z,48.00
2023-04-21T18:17:03.288Z,48.57
2023-04-21T18:22:07.481Z,49.05
2023-04-21T18:27:11.545Z,50.44
2023-04-21T18:32:18.953Z,51.43
2023-04-21T18:37:23.142Z,51.46
2023-04-21T18:42:28.835Z,52.13
2023-04-21T18:47:35.768Z,52.13
2023-04-21T18:52:40.043Z,52.84
2023-04-21T18:57:44.348Z,53.63
2023-04-21T19:02:51.392Z,54.77
2023-04-21T19:07:55.638Z,55.16
2023-04-21T19:12:59.948Z,55.30
2023-04-21T19:18:05.965Z,57.03
2023-04-21T19:23:10.266Z,56.44
2023-04-21T19:28:14.307Z,57.58
2023-04-21T19:33:20.362Z,60.35
2023-04-21T19:38:24.645Z,60.44
2023-04-21T19:43:28.786Z,61.41
2023-04-21T19:48:34.350Z,62.13
2023-04-21T19:53:39.060Z,63.48
2023-04-21T19:58:43.590Z,65.46
2023-04-21T20:03:49.196Z,66.35
2023-04-21T20:08:53.755Z,71.51
2023-04-21T20:13:58.205Z,68.07
2023-04-21T20:19:04.564Z,65.23
2023-04-21T20:24:10.475Z,61.41
2023-04-21T20:29:14.603Z,69.55
2023-04-21T20:34:20.073Z,72.13
2023-04-21T20:39:25.244Z,73.04
2023-04-21T20:44:31.534Z,76.67
2023-04-21T20:49:37.525Z,87.93
2023-04-21T20:54:42.258Z,79.35
2023-04-21T20:59:46.630Z,82.92
2023-04-21T21:04:52.324Z,94.38
2023-04-21T21:09:57.285Z,89.12
2023-04-21T21:15:01.697Z,84.84
2023-04-21T21:20:08.946Z,100.00
2023-04-21T21:25:14.068Z,100.00
2023-04-21T21:30:18.294Z,97.64
2023-04-21T21:35:27.499Z,99.26
2023-04-21T21:40:42.578Z,99.97
2023-04-21T21:45:50.177Z,93.39
2023-04-21T21:50:56.182Z,100.00
2023-04-21T21:56:01.229Z,100.00
2023-04-21T22:01:05.736Z,100.00
2023-04-21T22:06:13.693Z,100.00
2023-04-21T22:11:20.389Z,100.00
2023-04-21T22:16:24.719Z,100.00
2023-04-21T22:21:31.970Z,100.00
2023-04-21T22:26:36.455Z,100.00
2023-04-21T22:31:40.774Z,100.00
2023-04-21T22:36:46.421Z,100.00
2023-04-21T22:41:53.257Z,100.00
2023-04-21T22:46:57.451Z,100.00
2023-04-21T22:52:02.902Z,100.00
2023-04-21T22:57:07.495Z,100.00
2023-04-21T23:02:12.122Z,100.00
2023-04-21T23:07:17.700Z,100.00
2023-04-21T23:12:21.804Z,100.00
2023-04-21T23:17:26.146Z,100.00
2023-04-21T23:22:31.872Z,100.00
2023-04-21T23:27:36.179Z,100.00
2023-04-21T23:32:41.358Z,100.00
2023-04-21T23:37:47.258Z,100.00
2023-04-21T23:42:51.409Z,100.00
2023-04-21T23:47:55.446Z,100.00
2023-04-21T23:53:01.170Z,100.00
2023-04-21T23:58:05.398Z,100.00
